createdAt,value
2023-02-23T00:01:31.815Z,244
2023-02-23T00:03:33.545Z,244
2023-02-23T00:05:34.844Z,244
2023-02-23T00:07:36.762Z,244
2023-02-23T00:09:38.683Z,244
2023-02-23T00:11:40.380Z,244
2023-02-23T00:13:42.300Z,245
2023-02-23T00:15:43.770Z,244
2023-02-23T00:17:45.000Z,244
2023-02-23T00:19:46.432Z,244
2023-02-23T00:23:49.635Z,244
2023-02-23T00:25:51.583Z,245
2023-02-23T00:27:53.387Z,244
2023-02-23T00:29:54.966Z,244
2023-02-23T00:33:57.794Z,244
2023-02-23T00:35:59.589Z,245
2023-02-23T00:38:01.444Z,244
2023-02-23T00:40:02.813Z,244
2023-02-23T00:42:12.833Z,245
2023-02-23T00:44:05.475Z,244
2023-02-23T00:46:07.430Z,245
2023-02-23T00:48:08.855Z,245
2023-02-23T00:50:10.582Z,245
2023-02-23T00:52:12.050Z,244
2023-02-23T00:54:13.417Z,245
2023-02-23T00:56:15.335Z,245
2023-02-23T00:58:17.051Z,244
2023-02-23T01:00:18.093Z,244
2023-02-23T01:02:19.958Z,244
2023-02-23T01:06:23.379Z,244
2023-02-23T01:08:25.099Z,245
2023-02-23T01:10:26.115Z,245
2023-02-23T01:12:27.489Z,244
2023-02-23T01:16:29.569Z,244
2023-02-23T01:18:30.641Z,245
2023-02-23T01:20:32.264Z,245
2023-02-23T01:22:33.359Z,245
2023-02-23T01:24:34.318Z,245
2023-02-23T01:26:35.462Z,244
2023-02-23T01:28:36.864Z,245
2023-02-23T01:32:39.796Z,244
2023-02-23T01:34:41.152Z,244
2023-02-23T01:36:42.124Z,244
2023-02-23T01:38:43.542Z,244
2023-02-23T01:40:45.345Z,244
2023-02-23T01:42:46.834Z,244
2023-02-23T01:44:48.239Z,244
2023-02-23T01:48:51.258Z,244
2023-02-23T01:50:52.930Z,244
2023-02-23T01:52:54.775Z,244
2023-02-23T01:54:56.370Z,244
2023-02-23T01:58:59.314Z,244
2023-02-23T02:01:00.901Z,244
2023-02-23T02:03:45.871Z,244
2023-02-23T02:05:47.351Z,244
2023-02-23T02:07:48.368Z,244
2023-02-23T02:09:49.670Z,244
2023-02-23T02:13:52.647Z,244
2023-02-23T02:15:54.644Z,244
2023-02-23T02:17:56.094Z,244
2023-02-23T02:19:57.106Z,244
2023-02-23T02:21:58.564Z,244
2023-02-23T02:23:59.697Z,244
2023-02-23T02:26:00.776Z,244
2023-02-23T02:30:04.066Z,244
2023-02-23T02:32:05.521Z,244
2023-02-23T02:36:08.510Z,244
2023-02-23T02:38:10.131Z,244
2023-02-23T02:42:12.605Z,244
2023-02-23T02:46:15.637Z,244
2023-02-23T02:48:17.302Z,244
2023-02-23T02:52:20.023Z,244
2023-02-23T02:56:23.082Z,244
2023-02-23T02:58:24.109Z,244
2023-02-23T03:02:27.601Z,244
2023-02-23T03:04:29.269Z,244
2023-02-23T03:06:30.246Z,244
2023-02-23T03:08:31.832Z,244
2023-02-23T03:14:36.538Z,244
2023-02-23T03:16:38.055Z,244
2023-02-23T03:18:39.181Z,244
2023-02-23T03:20:40.968Z,244
2023-02-23T03:24:44.383Z,244
2023-02-23T03:26:45.840Z,244
2023-02-23T03:28:47.305Z,244
2023-02-23T03:30:48.901Z,244
2023-02-23T03:34:51.962Z,244
2023-02-23T03:36:53.650Z,244
2023-02-23T03:38:54.752Z,244
2023-02-23T03:40:56.401Z,244
2023-02-23T03:42:57.566Z,244
2023-02-23T03:44:59.228Z,244
2023-02-23T03:47:00.587Z,244
2023-02-23T03:49:02.068Z,244
2023-02-23T03:51:03.288Z,244
2023-02-23T03:53:04.601Z,244
2023-02-23T03:55:05.679Z,244
2023-02-23T03:57:07.404Z,244
2023-02-23T03:59:08.796Z,244
2023-02-23T04:01:10.140Z,244
2023-02-23T04:03:11.365Z,244
2023-02-23T04:07:14.427Z,244
2023-02-23T04:09:16.250Z,244
2023-02-23T04:11:17.842Z,244
2023-02-23T04:13:18.495Z,244
2023-02-23T04:17:21.696Z,244
2023-02-23T04:19:22.688Z,244
2023-02-23T04:21:24.164Z,244
2023-02-23T04:23:26.057Z,244
2023-02-23T04:27:29.172Z,244
2023-02-23T04:29:31.005Z,244
2023-02-23T04:31:32.417Z,244
2023-02-23T04:33:33.907Z,244
2023-02-23T04:39:37.875Z,244
2023-02-23T04:41:39.658Z,244
2023-02-23T04:43:40.953Z,244
2023-02-23T04:45:42.065Z,244
2023-02-23T04:49:44.763Z,244
2023-02-23T04:51:46.392Z,244
2023-02-23T04:53:47.414Z,244
2023-02-23T04:55:48.441Z,244
2023-02-23T04:59:51.211Z,244
2023-02-23T05:01:52.729Z,244
2023-02-23T05:05:55.708Z,244
2023-02-23T05:09:58.990Z,244
2023-02-23T05:12:00.425Z,244
2023-02-23T05:16:03.754Z,244
2023-02-23T05:20:06.590Z,244
2023-02-23T05:22:07.952Z,244
2023-02-23T05:26:10.451Z,244
2023-02-23T05:28:11.547Z,244
2023-02-23T05:30:12.842Z,244
2023-02-23T05:32:14.426Z,244
2023-02-23T05:38:19.329Z,244
2023-02-23T05:40:20.436Z,244
2023-02-23T05:42:21.639Z,244
2023-02-23T05:44:22.673Z,244
2023-02-23T05:48:25.476Z,244
2023-02-23T05:50:26.866Z,244
2023-02-23T05:52:28.171Z,244
2023-02-23T05:54:29.287Z,244
2023-02-23T05:58:32.195Z,244
2023-02-23T06:00:33.166Z,244
2023-02-23T06:02:34.579Z,244
2023-02-23T06:04:35.817Z,244
2023-02-23T06:06:37.416Z,244
2023-02-23T06:08:38.557Z,244
2023-02-23T06:10:39.760Z,244
2023-02-23T06:12:41.267Z,244
2023-02-23T06:14:42.400Z,244
2023-02-23T06:16:43.541Z,244
2023-02-23T06:18:44.921Z,244
2023-02-23T06:20:46.218Z,244
2023-02-23T06:22:47.828Z,244
2023-02-23T06:24:49.498Z,244
2023-02-23T06:26:51.424Z,244
2023-02-23T06:30:54.366Z,244
2023-02-23T06:32:55.357Z,244
2023-02-23T06:34:56.430Z,244
2023-02-23T06:36:57.951Z,244
2023-02-23T06:41:01.523Z,244
2023-02-23T06:43:02.581Z,244
2023-02-23T06:45:03.588Z,245
2023-02-23T06:47:04.581Z,245
2023-02-23T06:51:06.774Z,244
2023-02-23T06:53:07.744Z,244
2023-02-23T06:57:10.661Z,244
2023-02-23T07:01:13.893Z,244
2023-02-23T07:03:15.045Z,244
2023-02-23T07:07:18.003Z,244
2023-02-23T07:09:19.287Z,244
2023-02-23T07:11:20.643Z,244
2023-02-23T07:13:21.844Z,244
2023-02-23T07:15:23.084Z,244
2023-02-23T07:17:24.872Z,244
2023-02-23T07:19:25.936Z,244
2023-02-23T07:21:27.273Z,244
2023-02-23T07:23:28.656Z,244
2023-02-23T07:25:30.246Z,244
2023-02-23T07:29:33.169Z,244
2023-02-23T07:33:35.714Z,244
2023-02-23T07:35:37.348Z,245
2023-02-23T07:39:40.077Z,245
2023-02-23T07:41:41.048Z,245
2023-02-23T07:43:42.436Z,245
2023-02-23T07:45:46.192Z,245
2023-02-23T07:47:45.646Z,245
2023-02-23T07:49:46.790Z,245
2023-02-23T07:51:48.298Z,245
2023-02-23T07:53:49.829Z,245
2023-02-23T07:55:51.044Z,245
2023-02-23T07:57:52.069Z,245
2023-02-23T07:59:54.007Z,245
2023-02-23T08:01:55.513Z,245
2023-02-23T08:03:57.366Z,245
2023-02-23T08:05:58.686Z,245
2023-02-23T08:08:00.332Z,245
2023-02-23T08:12:02.662Z,245
2023-02-23T08:14:04.572Z,245
2023-02-23T08:16:05.560Z,245
2023-02-23T08:18:06.857Z,245
2023-02-23T08:22:10.167Z,245
2023-02-23T08:24:11.007Z,245
2023-02-23T08:26:12.173Z,245
2023-02-23T08:28:13.677Z,245
2023-02-23T08:32:16.190Z,245
2023-02-23T08:34:17.666Z,245
2023-02-23T08:36:19.270Z,245
2023-02-23T08:38:20.215Z,245
2023-02-23T08:42:23.000Z,245
2023-02-23T08:44:23.960Z,244
2023-02-23T08:47:08.704Z,245
2023-02-23T08:49:10.367Z,244
2023-02-23T08:55:14.991Z,245
2023-02-23T08:57:16.221Z,245
2023-02-23T08:59:17.373Z,245
2023-02-23T09:01:19.244Z,245
2023-02-23T09:05:22.242Z,244
2023-02-23T09:07:23.478Z,245
2023-02-23T09:09:24.904Z,245
2023-02-23T09:11:25.978Z,245
2023-02-23T09:15:28.721Z,245
2023-02-23T09:17:30.061Z,245
2023-02-23T09:19:31.307Z,245
2023-02-23T09:21:32.346Z,245
2023-02-23T09:23:33.677Z,245
2023-02-23T09:25:35.293Z,245
2023-02-23T09:27:36.498Z,245
2023-02-23T09:29:37.798Z,245
2023-02-23T09:31:39.467Z,245
2023-02-23T09:35:41.562Z,245
2023-02-23T09:37:42.741Z,245
2023-02-23T09:39:44.161Z,245
2023-02-23T09:41:45.640Z,245
2023-02-23T09:43:46.816Z,245
2023-02-23T09:47:49.629Z,245
2023-02-23T09:49:50.565Z,229
2023-02-23T09:51:51.887Z,229
2023-02-23T09:53:53.085Z,230
2023-02-23T09:57:56.252Z,229
2023-02-23T09:59:57.664Z,201
2023-02-23T10:01:59.241Z,201
2023-02-23T10:04:00.382Z,201
2023-02-23T10:08:02.766Z,201
2023-02-23T10:10:04.567Z,201
2023-02-23T10:12:05.796Z,201
2023-02-23T10:14:07.596Z,201
2023-02-23T10:18:10.558Z,201
2023-02-23T10:20:11.490Z,201
2023-02-23T10:22:13.034Z,201
2023-02-23T10:24:14.092Z,201
2023-02-23T10:26:15.241Z,201
2023-02-23T10:28:16.683Z,201
2023-02-23T10:30:17.925Z,201
2023-02-23T10:34:22.430Z,201
2023-02-23T10:36:22.142Z,201
2023-02-23T10:40:25.260Z,201
2023-02-23T10:42:25.764Z,201
2023-02-23T10:46:28.623Z,201
2023-02-23T10:50:30.725Z,201
2023-02-23T10:52:32.792Z,201
2023-02-23T10:56:34.712Z,201
2023-02-23T10:58:35.782Z,201
2023-02-23T11:00:36.795Z,201
2023-02-23T11:02:37.823Z,201
2023-02-23T11:04:39.011Z,201
2023-02-23T11:06:40.110Z,201
2023-02-23T11:08:41.916Z,201
2023-02-23T11:10:42.826Z,201
2023-02-23T11:12:44.670Z,201
2023-02-23T11:14:45.628Z,201
2023-02-23T11:16:46.766Z,201
2023-02-23T11:18:47.543Z,201
2023-02-23T11:20:49.463Z,201
2023-02-23T11:22:50.894Z,201
2023-02-23T11:24:51.937Z,201
2023-02-23T11:28:54.812Z,201
2023-02-23T11:30:56.090Z,201
2023-02-23T11:32:57.724Z,201
2023-02-23T11:34:59.129Z,201
2023-02-23T11:39:01.631Z,201
2023-02-23T11:41:03.075Z,201
2023-02-23T11:43:04.765Z,205
2023-02-23T11:45:05.702Z,214
2023-02-23T11:49:08.209Z,223
2023-02-23T11:51:09.722Z,223
2023-02-23T11:53:10.813Z,223
2023-02-23T11:55:12.361Z,223
2023-02-23T11:59:14.821Z,223
2023-02-23T12:01:16.585Z,223
2023-02-23T12:03:17.555Z,217
2023-02-23T12:05:18.587Z,217
2023-02-23T12:07:20.074Z,217
2023-02-23T12:09:21.205Z,217
2023-02-23T12:11:22.698Z,217
2023-02-23T12:15:24.881Z,218
2023-02-23T12:17:26.350Z,218
2023-02-23T12:19:27.909Z,218
2023-02-23T12:21:29.374Z,218
2023-02-23T12:23:30.376Z,218
2023-02-23T12:27:33.432Z,218
2023-02-23T12:31:35.925Z,218
2023-02-23T12:33:37.444Z,218
2023-02-23T12:37:40.642Z,218
2023-02-23T12:39:42.193Z,218
2023-02-23T12:43:45.679Z,218
2023-02-23T12:45:47.362Z,218
2023-02-23T12:47:48.363Z,218
2023-02-23T12:49:50.245Z,218
2023-02-23T12:51:51.812Z,218
2023-02-23T12:53:53.298Z,218
2023-02-23T12:55:54.721Z,218
2023-02-23T12:57:56.147Z,218
2023-02-23T12:59:57.664Z,218
2023-02-23T13:01:59.511Z,218
2023-02-23T13:04:00.892Z,218
2023-02-23T13:06:02.659Z,218
2023-02-23T13:10:05.749Z,218
2023-02-23T13:14:09.020Z,218
2023-02-23T13:16:10.656Z,218
2023-02-23T13:20:13.364Z,161
2023-02-23T13:22:14.697Z,167
2023-02-23T13:24:16.493Z,164
2023-02-23T13:26:18.000Z,164
2023-02-23T13:28:19.658Z,165
2023-02-23T13:30:20.522Z,187
2023-02-23T13:32:22.173Z,190
2023-02-23T13:34:23.025Z,195
2023-02-23T13:36:24.448Z,232
2023-02-23T13:38:26.243Z,232
2023-02-23T13:40:27.868Z,232
2023-02-23T13:42:29.255Z,232
2023-02-23T13:44:30.476Z,232
2023-02-23T13:46:31.786Z,232
2023-02-23T13:48:36.628Z,232
2023-02-23T13:52:36.562Z,232
2023-02-23T13:56:38.882Z,232
2023-02-23T13:58:39.736Z,232
2023-02-23T14:00:41.290Z,232
2023-02-23T14:02:42.364Z,232
2023-02-23T14:04:43.059Z,161
2023-02-23T14:06:44.514Z,162
2023-02-23T14:08:45.754Z,162
2023-02-23T14:10:46.806Z,158
2023-02-23T14:12:48.469Z,158
2023-02-23T14:14:49.915Z,158
2023-02-23T14:16:51.315Z,158
2023-02-23T14:18:52.358Z,160
2023-02-23T14:20:53.732Z,167
2023-02-23T14:24:55.563Z,167
2023-02-23T14:26:56.647Z,167
2023-02-23T14:28:58.455Z,167
2023-02-23T14:31:00.425Z,167
2023-02-23T14:35:02.377Z,166
2023-02-23T14:37:03.525Z,166
2023-02-23T14:39:04.336Z,166
2023-02-23T14:41:05.593Z,166
2023-02-23T14:45:08.260Z,166
2023-02-23T14:47:09.986Z,166
2023-02-23T14:49:11.428Z,193
2023-02-23T14:51:16.314Z,198
2023-02-23T14:55:14.759Z,198
2023-02-23T14:57:15.556Z,198
2023-02-23T15:01:18.683Z,188
2023-02-23T15:03:19.946Z,188
2023-02-23T15:05:21.126Z,188
2023-02-23T15:07:22.565Z,188
2023-02-23T15:13:28.767Z,198
2023-02-23T15:15:28.396Z,200
2023-02-23T15:17:29.991Z,200
2023-02-23T15:19:31.088Z,200
2023-02-23T15:21:32.840Z,200
2023-02-23T15:23:34.615Z,200
2023-02-23T15:27:37.064Z,200
2023-02-23T15:29:38.398Z,200
2023-02-23T15:32:23.533Z,200
2023-02-23T15:34:24.811Z,200
2023-02-23T15:36:26.587Z,200
2023-02-23T15:38:43.249Z,200
2023-02-23T15:40:29.628Z,200
2023-02-23T15:42:30.720Z,200
2023-02-23T15:44:38.872Z,200
2023-02-23T15:46:33.389Z,201
2023-02-23T15:48:34.905Z,201
2023-02-23T15:50:37.565Z,201
2023-02-23T15:52:38.662Z,201
2023-02-23T15:54:40.489Z,201
2023-02-23T15:56:42.238Z,201
2023-02-23T16:00:45.410Z,201
2023-02-23T16:02:46.316Z,201
2023-02-23T16:06:48.281Z,201
2023-02-23T16:10:51.101Z,201
2023-02-23T16:12:55.074Z,201
2023-02-23T16:14:55.018Z,201
2023-02-23T16:17:10.240Z,201
2023-02-23T16:19:00.139Z,201
2023-02-23T16:20:58.424Z,201
2023-02-23T16:22:59.694Z,201
2023-02-23T16:25:01.163Z,201
2023-02-23T16:27:02.250Z,201
2023-02-23T16:33:06.573Z,201
2023-02-23T16:35:07.650Z,201
2023-02-23T16:37:08.666Z,201
2023-02-23T16:39:10.170Z,201
2023-02-23T16:43:12.961Z,201
2023-02-23T16:45:14.113Z,201
2023-02-23T16:47:15.552Z,201
2023-02-23T16:49:16.900Z,201
2023-02-23T16:53:19.695Z,201
2023-02-23T16:55:21.564Z,201
2023-02-23T16:59:24.835Z,201
2023-02-23T17:03:27.443Z,201
2023-02-23T17:05:29.275Z,201
2023-02-23T17:09:32.145Z,201
2023-02-23T17:13:35.790Z,201
2023-02-23T17:15:37.689Z,201
2023-02-23T17:17:39.282Z,201
2023-02-23T17:19:40.208Z,201
2023-02-23T17:21:41.600Z,201
2023-02-23T17:23:42.564Z,201
2023-02-23T17:25:43.675Z,201
2023-02-23T17:29:46.415Z,201
2023-02-23T17:31:48.484Z,201
2023-02-23T17:35:50.633Z,201
2023-02-23T17:37:52.358Z,201
2023-02-23T17:41:55.056Z,201
2023-02-23T17:44:04.474Z,201
2023-02-23T17:45:57.945Z,201
2023-02-23T17:47:59.644Z,201
2023-02-23T17:52:01.646Z,201
2023-02-23T17:56:04.081Z,201
2023-02-23T17:58:05.010Z,201
2023-02-23T18:02:07.856Z,201
2023-02-23T18:04:09.020Z,201
2023-02-23T18:06:10.931Z,201
2023-02-23T18:08:12.679Z,201
2023-02-23T18:10:14.055Z,201
2023-02-23T18:12:15.509Z,201
2023-02-23T18:14:17.185Z,201
2023-02-23T18:16:18.157Z,201
2023-02-23T18:18:21.306Z,201
2023-02-23T18:20:24.306Z,201
2023-02-23T18:24:24.699Z,201
2023-02-23T18:28:27.435Z,201
2023-02-23T18:30:29.236Z,201
2023-02-23T18:34:32.717Z,201
2023-02-23T18:36:34.067Z,201
2023-02-23T18:38:35.619Z,201
2023-02-23T18:40:37.042Z,201
2023-02-23T18:42:42.161Z,201
2023-02-23T18:44:39.596Z,201
2023-02-23T18:46:41.935Z,201
2023-02-23T18:48:43.250Z,201
2023-02-23T18:50:44.176Z,201
2023-02-23T18:54:47.025Z,201
2023-02-23T18:56:48.258Z,201
2023-02-23T18:58:49.917Z,201
2023-02-23T19:00:51.061Z,201
2023-02-23T19:02:52.278Z,201
2023-02-23T19:06:55.080Z,201
2023-02-23T19:08:56.105Z,201
2023-02-23T19:10:57.207Z,201
2023-02-23T19:12:58.964Z,201
2023-02-23T19:17:01.765Z,201
2023-02-23T19:19:11.044Z,201
2023-02-23T19:21:04.732Z,201
2023-02-23T19:23:06.436Z,201
2023-02-23T19:27:10.028Z,201
2023-02-23T19:29:11.765Z,201
2023-02-23T19:31:12.936Z,201
2023-02-23T19:33:14.590Z,201
2023-02-23T19:37:17.152Z,201
2023-02-23T19:39:18.362Z,201
2023-02-23T19:41:20.879Z,201
2023-02-23T19:43:21.300Z,201
2023-02-23T19:45:22.427Z,201
2023-02-23T19:47:23.693Z,201
2023-02-23T19:49:24.998Z,201
2023-02-23T19:51:26.478Z,201
2023-02-23T19:53:28.134Z,201
2023-02-23T19:55:38.019Z,201
2023-02-23T19:59:31.862Z,201
2023-02-23T20:01:33.485Z,201
2023-02-23T20:05:36.230Z,201
2023-02-23T20:09:39.398Z,201
2023-02-23T20:11:41.311Z,201
2023-02-23T20:15:44.229Z,201
2023-02-23T20:21:47.669Z,201
2023-02-23T20:23:49.128Z,201
2023-02-23T20:25:50.725Z,201
2023-02-23T20:27:51.941Z,201
2023-02-23T20:29:53.711Z,201
2023-02-23T20:31:54.700Z,201
2023-02-23T20:37:59.670Z,201
2023-02-23T20:40:00.784Z,201
2023-02-23T20:42:01.837Z,201
2023-02-23T20:44:03.560Z,201
2023-02-23T20:48:06.169Z,201
2023-02-23T20:52:09.756Z,201
2023-02-23T20:54:11.571Z,201
2023-02-23T20:58:14.334Z,201
2023-02-23T21:02:17.084Z,201
2023-02-23T21:04:18.505Z,201
2023-02-23T21:08:21.630Z,201
2023-02-23T21:10:23.181Z,201
2023-02-23T21:12:24.554Z,201
2023-02-23T21:14:25.721Z,201
2023-02-23T21:16:26.852Z,201
2023-02-23T21:18:27.896Z,201
2023-02-23T21:20:29.043Z,201
2023-02-23T21:22:30.725Z,201
2023-02-23T21:24:32.223Z,201
2023-02-23T21:26:42.800Z,201
2023-02-23T21:30:36.206Z,201
2023-02-23T21:32:37.469Z,201
2023-02-23T21:34:39.208Z,201
2023-02-23T21:36:41.036Z,153
2023-02-23T21:40:43.203Z,153
2023-02-23T21:42:49.806Z,153
2023-02-23T21:44:46.772Z,153
2023-02-23T21:46:47.984Z,153
2023-02-23T21:48:50.192Z,153
2023-02-23T21:50:51.049Z,153
2023-02-23T21:52:52.427Z,153
2023-02-23T21:56:54.738Z,153
2023-02-23T22:00:57.629Z,153
2023-02-23T22:02:59.667Z,153
2023-02-23T22:05:01.418Z,153
2023-02-23T22:07:02.843Z,153
2023-02-23T22:09:04.119Z,153
2023-02-23T22:13:07.505Z,153
2023-02-23T22:15:08.642Z,153
2023-02-23T22:17:10.408Z,153
2023-02-23T22:17:54.304Z,154
2023-02-23T22:20:04.303Z,153
2023-02-23T22:21:57.252Z,153
2023-02-23T22:23:59.168Z,153
2023-02-23T22:28:02.206Z,153
2023-02-23T22:30:03.891Z,153
2023-02-23T22:34:06.756Z,153
2023-02-23T22:38:09.586Z,153
2023-02-23T22:40:10.720Z,153
2023-02-23T22:42:12.401Z,153
2023-02-23T22:44:13.493Z,153
2023-02-23T22:46:15.054Z,153
2023-02-23T22:50:17.074Z,153
2023-02-23T22:54:20.263Z,153
2023-02-23T22:56:21.649Z,153
2023-02-23T23:00:24.602Z,153
2023-02-23T23:02:26.394Z,153
2023-02-23T23:06:29.347Z,153
2023-02-23T23:10:32.806Z,153
2023-02-23T23:12:34.730Z,153
2023-02-23T23:16:37.366Z,153
2023-02-23T23:20:40.872Z,153
2023-02-23T23:22:42.347Z,153
2023-02-23T23:26:45.298Z,153
2023-02-23T23:28:46.938Z,153
2023-02-23T23:30:47.870Z,153
2023-02-23T23:32:49.744Z,153
2023-02-23T23:38:54.117Z,153
2023-02-23T23:40:55.503Z,153
2023-02-23T23:42:57.272Z,153
2023-02-23T23:45:03.894Z,153
2023-02-23T23:49:01.360Z,153
2023-02-23T23:53:04.749Z,153
2023-02-23T23:55:06.175Z,153
2023-02-23T23:59:09.143Z,153
